Time;durP1;ratioP1;P1;durP2;ratioP2;P2;SDS_P1;SDS_P2;PMS_P1;PMS_P2;Temp;Humidity;BMP_temperature;BMP_pressure;BME280_temperature;BME280_humidity;BME280_pressure;Samples;Min_cycle;Max_cycle;Signal;HPM_P1;HPM_P2
2022/03/26 00:00:20;;;;;;;5.35;1.70;;;;;;;11.70;71.66;102285.78;4979942;28;20399;-72
2022/03/26 00:02:45;;;;;;;2.90;2.17;;;;;;;11.70;71.30;102283.09;4990769;28;20041;-72
2022/03/26 00:05:11;;;;;;;3.00;2.05;;;;;;;11.60;72.15;102283.41;4984785;28;20120;-71
2022/03/26 00:07:36;;;;;;;2.25;1.88;;;;;;;11.75;71.16;102291.00;4981069;28;20069;-72
2022/03/26 00:10:06;;;;;;;4.22;2.75;;;;;;;11.64;72.08;102291.63;4990798;28;20109;-72
2022/03/26 00:12:31;;;;;;;3.80;2.63;;;;;;;11.71;70.83;102283.88;4990695;28;20034;-72
2022/03/26 00:14:58;;;;;;;2.58;1.77;;;;;;;11.78;70.19;102284.19;4984743;28;20077;-72
2022/03/26 00:17:25;;;;;;;3.80;2.03;;;;;;;11.56;71.66;102273.56;4984550;28;20034;-72
2022/03/26 00:19:50;;;;;;;3.10;2.30;;;;;;;11.38;72.88;102259.31;4977547;28;20399;-72
2022/03/26 00:22:16;;;;;;;3.25;1.70;;;;;;;11.35;73.35;102254.56;4992240;28;20038;-72
2022/03/26 00:24:41;;;;;;;5.10;2.33;;;;;;;11.40;73.17;102245.53;4991701;28;20117;-72
2022/03/26 00:27:07;;;;;;;6.80;2.47;;;;;;;11.36;73.38;102239.94;4993477;28;20078;-72
2022/03/26 00:29:32;;;;;;;2.53;2.00;;;;;;;11.34;73.42;102231.38;4992962;28;20046;-72
2022/03/26 00:31:58;;;;;;;6.07;2.38;;;;;;;11.41;72.86;102231.72;4975938;28;20406;-72
2022/03/26 00:34:23;;;;;;;2.40;2.15;;;;;;;11.32;72.96;102246.31;4994183;28;20030;-72
2022/03/26 00:36:49;;;;;;;10.05;1.67;;;;;;;11.28;73.33;102243.47;4992792;28;20042;-72
2022/03/26 00:39:14;;;;;;;3.92;2.05;;;;;;;11.28;73.53;102248.88;4972964;28;20030;-72
2022/03/26 00:41:39;;;;;;;5.32;1.77;;;;;;;11.24;74.26;102264.09;4993789;28;20507;-72
2022/03/26 00:44:05;;;;;;;5.85;2.20;;;;;;;11.21;74.10;102247.75;4993890;28;20057;-71
2022/03/26 00:46:30;;;;;;;5.25;2.20;;;;;;;11.16;73.71;102250.63;4992182;28;21621;-72
2022/03/26 00:48:56;;;;;;;5.45;3.45;;;;;;;11.09;73.88;102250.31;5000218;28;20038;-72
2022/03/26 00:51:22;;;;;;;2.20;2.10;;;;;;;11.06;74.82;102243.66;5010486;28;20113;-72
2022/03/26 00:53:48;;;;;;;3.45;2.40;;;;;;;11.06;75.66;102257.13;4993541;28;20129;-72
2022/03/26 00:56:13;;;;;;;3.65;1.95;;;;;;;11.16;75.68;102250.63;4975734;28;20030;-70
2022/03/26 00:58:39;;;;;;;2.65;2.38;;;;;;;11.09;76.49;102245.69;4978132;28;20030;-71
2022/03/26 01:01:05;;;;;;;2.90;1.67;;;;;;;11.02;76.37;102244.59;4993494;28;20041;-71
2022/03/26 01:03:31;;;;;;;2.28;1.73;;;;;;;10.96;77.32;102243.97;4991923;28;20034;-71
2022/03/26 01:05:56;;;;;;;3.35;2.67;;;;;;;10.93;77.90;102241.13;4981928;28;20449;-71
2022/03/26 01:08:22;;;;;;;1.73;1.55;;;;;;;10.90;78.23;102239.84;4960398;28;20153;-71
2022/03/26 01:10:47;;;;;;;3.03;1.73;;;;;;;10.81;78.38;102237.16;4989129;28;20038;-71
2022/03/26 01:13:13;;;;;;;5.30;2.10;;;;;;;10.78;78.33;102227.00;4990915;28;20367;-71
2022/03/26 01:15:39;;;;;;;4.80;2.30;;;;;;;10.76;79.00;102228.44;4991223;28;20121;-71
2022/03/26 01:18:04;;;;;;;2.85;2.05;;;;;;;10.74;78.95;102228.75;4992363;28;20034;-71
2022/03/26 01:20:30;;;;;;;2.75;2.08;;;;;;;10.82;78.13;102219.88;4993214;28;20038;-71
2022/03/26 01:22:56;;;;;;;3.30;1.77;;;;;;;10.71;78.77;102218.59;4992929;28;20034;-72
2022/03/26 01:25:21;;;;;;;3.13;2.08;;;;;;;10.70;79.21;102233.19;4992985;28;20088;-71
2022/03/26 01:27:47;;;;;;;3.78;2.33;;;;;;;10.74;79.26;102220.66;4992198;28;20042;-71
2022/03/26 01:30:13;;;;;;;3.80;1.90;;;;;;;10.66;79.34;102221.47;4993259;28;20041;-72
2022/03/26 01:32:39;;;;;;;4.22;2.53;;;;;;;10.60;79.94;102217.34;4973766;28;20034;-72
2022/03/26 01:35:05;;;;;;;6.40;2.58;;;;;;;10.58;79.82;102226.84;4990268;28;20615;-71
2022/03/26 01:37:30;;;;;;;2.08;1.38;;;;;;;10.55;79.97;102222.09;4991928;28;20026;-72
2022/03/26 01:39:56;;;;;;;2.67;1.65;;;;;;;10.50;80.29;102216.84;4975910;28;20575;-71
2022/03/26 01:42:22;;;;;;;4.88;3.40;;;;;;;10.50;80.19;102216.84;4989278;28;20407;-72
2022/03/26 01:44:48;;;;;;;9.30;2.08;;;;;;;10.48;80.45;102211.78;4975206;28;20423;-71
2022/03/26 01:47:13;;;;;;;2.97;2.28;;;;;;;10.44;80.09;102213.50;4985551;28;20034;-72
2022/03/26 01:49:39;;;;;;;3.80;2.15;;;;;;;10.43;80.60;102208.44;4982082;28;20452;-72
2022/03/26 01:52:07;;;;;;;2.08;1.95;;;;;;;10.39;80.33;102208.28;4969757;28;20097;-72
2022/03/26 01:54:33;;;;;;;5.78;2.03;;;;;;;10.32;80.83;102207.94;4992169;28;20584;-72
2022/03/26 01:56:58;;;;;;;4.15;2.60;;;;;;;10.29;81.38;102205.09;4989002;28;20034;-71
2022/03/26 01:59:25;;;;;;;5.00;2.30;;;;;;;10.25;81.46;102199.53;4988844;28;20062;-71
2022/03/26 02:01:50;;;;;;;3.90;2.55;;;;;;;10.26;81.14;102206.50;4998247;28;20037;-71
2022/03/26 02:04:16;;;;;;;2.90;2.08;;;;;;;10.27;81.37;102200.03;4988282;28;20085;-71
2022/03/26 02:06:42;;;;;;;4.60;2.55;;;;;;;10.18;81.71;102196.50;4973300;28;20049;-72
2022/03/26 02:09:14;;;;;;;2.50;1.77;;;;;;;10.18;82.26;102193.03;4991862;28;20038;-71
2022/03/26 02:11:42;;;;;;;3.97;2.95;;;;;;;10.20;81.98;102188.91;5003290;28;20038;-71
2022/03/26 02:14:08;;;;;;;11.13;4.78;;;;;;;10.14;82.44;102195.56;4977375;28;20451;-71
2022/03/26 02:16:36;;;;;;;6.45;3.75;;;;;;;10.21;81.93;102190.50;4990244;28;20038;-72
2022/03/26 02:19:04;;;;;;;3.65;1.80;;;;;;;10.17;82.22;102189.56;4988951;28;20735;-72
2022/03/26 02:21:30;;;;;;;3.50;1.98;;;;;;;10.13;82.35;102191.28;4991559;28;20046;-72
2022/03/26 02:23:56;;;;;;;4.22;2.45;;;;;;;10.16;82.33;102196.06;4992056;28;20119;-71
2022/03/26 02:26:26;;;;;;;1.65;1.40;;;;;;;10.11;82.25;102198.88;4991280;28;20170;-71
2022/03/26 02:28:56;;;;;;;3.70;2.78;;;;;;;10.10;82.23;102202.69;4988602;28;20147;-71
2022/03/26 02:31:22;;;;;;;2.58;1.83;;;;;;;10.21;81.75;102195.91;4987905;28;20470;-71
2022/03/26 02:33:48;;;;;;;1.92;1.70;;;;;;;10.08;81.97;102198.69;4991513;28;20093;-71
2022/03/26 02:36:15;;;;;;;4.93;1.63;;;;;;;10.02;82.55;102201.53;4970888;28;20030;-71
2022/03/26 02:38:41;;;;;;;9.20;2.65;;;;;;;9.96;82.70;102192.00;4985924;28;20582;-72
2022/03/26 02:41:08;;;;;;;1.45;1.35;;;;;;;9.94;83.39;102194.22;4969929;28;20499;-73
2022/03/26 02:43:34;;;;;;;1.52;1.42;;;;;;;9.93;83.03;102194.50;4998989;28;20238;-71
2022/03/26 02:46:00;;;;;;;3.15;2.08;;;;;;;9.91;83.37;102188.69;5011041;28;20141;-71
2022/03/26 02:48:25;;;;;;;3.75;2.40;;;;;;;10.07;82.47;102189.81;4992141;28;20136;-71
2022/03/26 02:50:52;;;;;;;4.57;1.98;;;;;;;10.01;82.48;102194.53;4988166;28;20120;-72
2022/03/26 02:53:17;;;;;;;1.52;1.42;;;;;;;9.95;82.90;102200.38;4983136;28;20450;-71
2022/03/26 02:55:43;;;;;;;3.15;1.40;;;;;;;9.91;83.29;102188.69;4991300;28;20105;-71
2022/03/26 02:58:09;;;;;;;3.55;1.98;;;;;;;9.90;83.50;102193.25;4993110;28;20042;-72
2022/03/26 03:00:36;;;;;;;3.25;2.47;;;;;;;9.88;83.40;102194.66;4993618;28;20033;-72
2022/03/26 03:03:02;;;;;;;2.90;2.30;;;;;;;9.91;83.08;102194.06;4991047;28;20038;-71
2022/03/26 03:05:27;;;;;;;2.85;1.55;;;;;;;9.88;82.73;102183.91;4980781;28;20037;-71
2022/03/26 03:07:53;;;;;;;2.80;2.38;;;;;;;9.83;83.46;102178.66;4980865;28;20077;-71
2022/03/26 03:10:20;;;;;;;4.53;2.50;;;;;;;9.80;83.56;102181.97;4991425;28;20022;-71
2022/03/26 03:12:47;;;;;;;6.95;2.35;;;;;;;9.76;83.34;102170.25;4991533;28;20034;-71
2022/03/26 03:15:13;;;;;;;4.45;3.40;;;;;;;9.82;83.68;102169.00;4987908;28;20661;-71
2022/03/26 03:17:41;;;;;;;3.78;2.10;;;;;;;9.81;83.04;102167.44;4975344;28;20057;-71
2022/03/26 03:20:09;;;;;;;4.03;3.13;;;;;;;9.78;83.54;102181.47;4985632;28;20034;-71
2022/03/26 03:22:35;;;;;;;6.03;2.35;;;;;;;9.78;83.32;102182.28;4988013;28;20057;-72
2022/03/26 03:25:01;;;;;;;4.57;2.50;;;;;;;9.71;84.09;102176.56;4985464;28;20047;-71
2022/03/26 03:27:26;;;;;;;2.10;1.90;;;;;;;9.69;84.07;102176.09;4985707;28;20035;-71
2022/03/26 03:29:52;;;;;;;2.30;1.98;;;;;;;9.71;83.90;102176.56;4980834;28;20101;-71
2022/03/26 03:32:18;;;;;;;5.20;2.25;;;;;;;9.65;83.98;102168.94;4967402;28;20078;-71
2022/03/26 03:34:43;;;;;;;6.15;2.13;;;;;;;9.66;84.08;102176.69;4979974;28;20034;-71
2022/03/26 03:37:09;;;;;;;4.25;2.25;;;;;;;9.64;83.68;102170.84;4990111;28;20068;-71
2022/03/26 03:39:34;;;;;;;2.35;2.15;;;;;;;9.68;83.30;102179.06;4987366;28;20019;-72
2022/03/26 03:42:00;;;;;;;3.75;2.40;;;;;;;9.57;83.89;102173.19;4982869;28;20078;-71
2022/03/26 03:44:25;;;;;;;2.20;1.42;;;;;;;9.65;83.49;102187.78;4990295;28;20038;-71
2022/03/26 03:46:52;;;;;;;3.05;2.53;;;;;;;9.57;84.07;102177.75;4990755;28;21080;-72
2022/03/26 03:49:18;;;;;;;2.67;1.42;;;;;;;9.65;83.81;102174.31;4987311;28;20029;-72
2022/03/26 03:51:43;;;;;;;3.15;1.98;;;;;;;9.52;83.77;102169.84;4990802;28;20035;-72
2022/03/26 03:54:09;;;;;;;2.30;2.10;;;;;;;9.48;84.41;102175.06;4997691;28;20026;-72
2022/03/26 03:56:35;;;;;;;2.78;1.77;;;;;;;9.50;84.24;102177.44;4985981;28;20043;-72
2022/03/26 03:59:00;;;;;;;3.35;2.53;;;;;;;9.47;84.32;102172.66;4994223;28;20117;-72
2022/03/26 04:01:26;;;;;;;2.55;2.13;;;;;;;9.44;84.60;102165.22;4989569;28;20515;-72
2022/03/26 04:03:51;;;;;;;1.73;1.40;;;;;;;9.37;84.68;102162.19;4994572;28;20125;-72
2022/03/26 04:06:17;;;;;;;3.80;2.20;;;;;;;9.36;84.70;102161.38;4990844;28;20041;-71
2022/03/26 04:08:42;;;;;;;2.45;2.08;;;;;;;9.29;84.74;102162.94;4977503;28;20510;-72
2022/03/26 04:11:08;;;;;;;4.57;2.70;;;;;;;9.40;84.31;102169.63;4977530;28;20140;-71
2022/03/26 04:13:33;;;;;;;1.90;1.65;;;;;;;9.30;84.75;102162.63;4993937;28;20034;-72
2022/03/26 04:15:58;;;;;;;1.75;1.48;;;;;;;9.29;85.12;102174.47;4994393;28;20155;-72
2022/03/26 04:18:24;;;;;;;1.95;1.58;;;;;;;9.25;85.15;102167.34;4982930;28;20038;-71
2022/03/26 04:20:52;;;;;;;1.05;0.80;;;;;;;9.22;85.46;102167.94;4991658;28;20853;-71
2022/03/26 04:23:18;;;;;;;1.40;1.30;;;;;;;9.26;85.46;102161.66;4987826;28;20174;-72
2022/03/26 04:25:44;;;;;;;1.88;1.70;;;;;;;9.39;84.74;102168.81;4994090;28;20053;-71
2022/03/26 04:28:09;;;;;;;1.80;1.40;;;;;;;9.22;84.96;102162.56;4992612;28;20046;-72
2022/03/26 04:30:35;;;;;;;1.33;1.23;;;;;;;9.20;85.43;102159.38;4994556;28;20069;-71
2022/03/26 04:33:00;;;;;;;1.10;1.10;;;;;;;9.26;85.08;102166.22;4994239;28;20038;-71
2022/03/26 04:35:26;;;;;;;3.88;2.35;;;;;;;9.15;85.48;102162.22;4976774;28;20114;-71
2022/03/26 04:37:55;;;;;;;2.33;1.77;;;;;;;9.17;85.61;102157.31;4991988;28;20042;-72
2022/03/26 04:40:20;;;;;;;2.67;2.42;;;;;;;9.13;86.00;102153.66;4991732;28;20042;-72
2022/03/26 04:42:46;;;;;;;4.40;2.65;;;;;;;9.13;86.08;102150.97;4985945;28;20109;-72
2022/03/26 04:45:12;;;;;;;1.25;1.17;;;;;;;9.15;85.84;102148.78;4977745;28;20054;-71
2022/03/26 04:47:38;;;;;;;1.67;1.63;;;;;;;9.30;84.66;102151.06;4988973;28;20849;-72
2022/03/26 04:50:05;;;;;;;1.38;1.27;;;;;;;9.28;84.99;102155.94;4991160;28;20030;-71
2022/03/26 04:52:31;;;;;;;1.52;1.42;;;;;;;9.18;85.55;102153.53;4993731;28;20045;-72
2022/03/26 04:54:56;;;;;;;1.77;1.60;;;;;;;9.24;84.89;102165.72;4993952;28;20576;-72
2022/03/26 04:57:21;;;;;;;1.30;1.23;;;;;;;9.27;84.38;102165.13;4988549;28;20043;-72
2022/03/26 04:59:47;;;;;;;2.55;2.08;;;;;;;9.16;85.49;102161.09;4992109;28;20041;-72
2022/03/26 05:02:13;;;;;;;1.98;1.17;;;;;;;9.17;85.17;102166.19;4993640;28;20537;-72
2022/03/26 05:04:39;;;;;;;1.90;1.35;;;;;;;9.09;86.09;102161.56;4992559;28;20517;-72
2022/03/26 05:07:45;;;;;;;4.32;2.10;;;;;;;9.21;85.54;102171.72;4975097;28;20034;-72
2022/03/26 05:09:50;;;;;;;1.27;0.98;;;;;;;9.17;85.27;102174.25;4992164;28;20050;-71
2022/03/26 05:12:17;;;;;;;2.00;1.77;;;;;;;9.26;85.06;102163.53;4993710;28;20091;-72
2022/03/26 05:14:43;;;;;;;1.42;1.23;;;;;;;9.09;85.75;102161.56;4986602;28;20038;-72
2022/03/26 05:17:09;;;;;;;1.30;1.20;;;;;;;9.09;86.11;102175.00;4974737;28;20030;-72
2022/03/26 05:19:34;;;;;;;2.20;1.67;;;;;;;9.31;84.49;102179.53;4977463;28;20113;-72
2022/03/26 05:22:00;;;;;;;2.03;1.92;;;;;;;9.13;85.42;102180.53;4984478;28;20034;-72
2022/03/26 05:24:26;;;;;;;1.77;1.45;;;;;;;9.01;86.79;102181.09;4986227;28;20605;-72
2022/03/26 05:26:51;;;;;;;2.08;1.63;;;;;;;8.94;87.40;102178.81;4975448;28;20867;-71
2022/03/26 05:29:17;;;;;;;2.13;1.67;;;;;;;8.98;87.90;102176.34;4993109;28;20089;-71
2022/03/26 05:31:43;;;;;;;1.98;1.65;;;;;;;9.15;86.17;102181.03;4972072;28;20045;-72
2022/03/26 05:34:08;;;;;;;2.95;1.85;;;;;;;9.23;85.82;102185.66;4992683;28;20475;-72
2022/03/26 05:36:34;;;;;;;1.88;1.67;;;;;;;9.10;86.83;102176.56;4992286;28;20021;-72
2022/03/26 05:38:59;;;;;;;2.30;1.83;;;;;;;9.22;86.33;102184.84;4992517;28;20380;-72
2022/03/26 05:41:24;;;;;;;4.57;2.20;;;;;;;9.14;86.42;102187.50;4990030;28;20058;-72
2022/03/26 05:43:50;;;;;;;1.20;0.68;;;;;;;9.17;87.03;102187.69;4993394;28;20030;-72
2022/03/26 05:46:15;;;;;;;6.30;2.13;;;;;;;9.20;86.47;102180.88;4992532;28;20045;-71
2022/03/26 05:48:41;;;;;;;1.27;1.20;;;;;;;9.21;86.86;102191.34;4990621;28;20120;-70
2022/03/26 05:51:07;;;;;;;2.05;1.05;;;;;;;9.17;87.63;102197.63;4989421;28;20516;-72
2022/03/26 05:53:32;;;;;;;1.52;1.42;;;;;;;9.39;86.36;102194.94;4971837;28;20041;-71
2022/03/26 05:55:58;;;;;;;3.58;2.35;;;;;;;9.28;87.25;102185.53;4988829;28;20169;-70
2022/03/26 05:58:25;;;;;;;8.48;2.47;;;;;;;9.53;85.52;102184.84;4988962;28;20109;-72
2022/03/26 06:00:50;;;;;;;3.08;1.52;;;;;;;9.47;85.65;102194.16;4977954;28;20431;-71
2022/03/26 06:03:19;;;;;;;3.08;1.88;;;;;;;9.39;86.80;102192.25;4991627;28;20093;-71
2022/03/26 06:05:46;;;;;;;3.83;1.85;;;;;;;9.38;87.11;102187.94;4975325;28;20034;-72
2022/03/26 06:08:11;;;;;;;2.83;2.30;;;;;;;9.52;85.84;102186.78;4989035;28;20034;-72
2022/03/26 06:10:37;;;;;;;3.25;1.70;;;;;;;9.54;85.76;102178.41;4971315;28;20089;-71
2022/03/26 06:13:02;;;;;;;4.07;2.33;;;;;;;9.43;87.27;102187.81;4989980;28;20026;-70
2022/03/26 06:15:27;;;;;;;4.93;1.83;;;;;;;9.34;88.53;102197.72;4987770;28;20042;-72
2022/03/26 06:17:53;;;;;;;5.32;1.85;;;;;;;9.49;87.88;102203.50;4991392;28;20030;-72
2022/03/26 06:20:18;;;;;;;1.95;1.83;;;;;;;9.50;87.76;102209.69;4990930;28;20030;-72
2022/03/26 06:22:44;;;;;;;3.53;1.85;;;;;;;9.54;88.32;102211.44;4974206;28;20049;-72
2022/03/26 06:25:09;;;;;;;5.15;1.95;;;;;;;9.76;87.31;102208.69;4990200;28;20050;-72
2022/03/26 06:27:34;;;;;;;3.00;2.13;;;;;;;9.66;87.94;102203.59;4989476;28;20041;-72
2022/03/26 06:30:00;;;;;;;1.77;1.40;;;;;;;9.59;88.61;102219.38;4991165;28;20118;-72
2022/03/26 06:32:25;;;;;;;5.18;3.08;;;;;;;9.66;88.82;102205.47;4974273;28;20591;-72
2022/03/26 06:34:51;;;;;;;1.48;1.38;;;;;;;9.91;87.23;102220.97;4982239;28;20398;-72
2022/03/26 06:37:16;;;;;;;4.18;2.00;;;;;;;9.88;88.24;102221.56;4988522;28;20658;-71
2022/03/26 06:39:42;;;;;;;2.60;2.25;;;;;;;9.93;88.89;102221.41;4991523;28;20046;-72
2022/03/26 06:42:08;;;;;;;2.97;1.15;;;;;;;10.01;88.21;102216.06;4988922;28;20031;-72
2022/03/26 06:44:33;;;;;;;3.95;2.55;;;;;;;10.30;86.88;102229.00;4973081;28;20487;-72
2022/03/26 06:46:59;;;;;;;1.35;1.27;;;;;;;10.21;87.67;102222.81;4972903;28;20025;-72
2022/03/26 06:49:27;;;;;;;6.78;2.53;;;;;;;10.23;88.16;102227.88;4991372;28;20037;-71
2022/03/26 06:51:52;;;;;;;1.92;1.83;;;;;;;10.39;87.97;102237.91;4991357;28;20034;-72
2022/03/26 06:54:18;;;;;;;3.42;2.25;;;;;;;10.45;87.96;102225.84;4975328;28;20034;-72
2022/03/26 06:56:44;;;;;;;2.75;2.35;;;;;;;10.53;88.08;102227.00;4993934;28;20022;-72
2022/03/26 06:59:11;;;;;;;1.70;1.58;;;;;;;10.82;87.42;102230.66;4993871;28;20049;-72
2022/03/26 07:01:37;;;;;;;4.03;2.40;;;;;;;10.90;87.32;102226.38;4990430;28;20066;-72
2022/03/26 07:04:02;;;;;;;1.90;1.63;;;;;;;11.05;86.03;102233.19;4991533;28;20041;-72
2022/03/26 07:06:28;;;;;;;4.47;2.13;;;;;;;11.23;86.04;102230.16;5006608;28;20077;-72
2022/03/26 07:08:54;;;;;;;3.42;3.13;;;;;;;11.41;85.01;102231.72;4973899;28;20026;-72
2022/03/26 07:11:19;;;;;;;3.35;1.77;;;;;;;11.69;82.94;102232.91;4988379;28;20113;-72
2022/03/26 07:13:45;;;;;;;2.08;1.77;;;;;;;11.75;82.95;102231.63;4974950;28;20042;-72
2022/03/26 07:16:10;;;;;;;2.70;2.05;;;;;;;11.90;82.64;102237.59;4973447;28;20034;-73
2022/03/26 07:18:36;;;;;;;1.60;1.35;;;;;;;12.01;81.89;102241.53;4986833;28;20038;-72
2022/03/26 07:21:02;;;;;;;1.60;1.48;;;;;;;12.07;82.16;102243.72;4991965;28;20372;-72
2022/03/26 07:23:28;;;;;;;4.95;2.30;;;;;;;12.18;81.86;102226.03;4991698;28;20038;-72
2022/03/26 07:25:54;;;;;;;2.72;1.58;;;;;;;12.28;81.59;102241.06;4990479;28;20036;-72
2022/03/26 07:28:20;;;;;;;3.40;2.45;;;;;;;12.63;79.48;102239.72;4970497;28;20038;-72
2022/03/26 07:30:45;;;;;;;3.30;2.03;;;;;;;12.72;79.51;102245.09;4989796;28;20038;-72
2022/03/26 07:33:11;;;;;;;2.75;2.38;;;;;;;12.81;79.83;102245.78;4973263;28;20037;-72
2022/03/26 07:35:36;;;;;;;1.33;1.23;;;;;;;12.81;80.14;102245.78;4990085;28;20049;-72
2022/03/26 07:38:03;;;;;;;0.68;0.63;;;;;;;13.00;79.53;102233.38;4973630;28;20032;-72
2022/03/26 07:40:29;;;;;;;6.20;2.00;;;;;;;13.20;78.89;102238.00;4989201;28;20475;-71
2022/03/26 07:42:54;;;;;;;1.52;1.40;;;;;;;13.46;78.14;102240.44;4989901;28;20399;-72
2022/03/26 07:45:20;;;;;;;4.47;1.02;;;;;;;13.65;77.23;102235.28;4989193;28;20053;-71
2022/03/26 07:47:45;;;;;;;2.10;1.73;;;;;;;13.74;75.98;102236.00;4986055;28;20162;-72
2022/03/26 07:50:11;;;;;;;1.20;0.90;;;;;;;13.92;74.30;102255.50;4988784;28;20526;-72
2022/03/26 07:52:36;;;;;;;2.15;1.90;;;;;;;13.87;74.88;102248.41;4970008;28;20042;-72
2022/03/26 07:55:02;;;;;;;1.60;1.48;;;;;;;13.99;74.23;102240.31;4989138;28;20034;-72
2022/03/26 07:57:28;;;;;;;2.53;1.95;;;;;;;14.07;75.14;102242.09;4980614;28;20449;-72
2022/03/26 07:59:54;;;;;;;2.97;1.83;;;;;;;14.26;74.14;102242.34;4985691;28;20030;-72
2022/03/26 08:02:19;;;;;;;5.03;2.22;;;;;;;14.45;74.29;102237.13;4988291;28;20476;-72
2022/03/26 08:04:45;;;;;;;2.20;1.25;;;;;;;14.72;71.31;102237.53;4987885;28;20077;-71
2022/03/26 08:07:11;;;;;;;2.88;1.55;;;;;;;14.79;71.32;102245.88;4987265;28;20133;-72
2022/03/26 08:09:37;;;;;;;1.15;1.00;;;;;;;14.80;71.76;102242.03;4987358;28;20038;-72
2022/03/26 08:12:03;;;;;;;3.10;1.85;;;;;;;14.72;72.00;102240.22;4980464;28;20042;-72
2022/03/26 08:14:30;;;;;;;2.72;1.60;;;;;;;14.69;71.74;102235.50;4987353;28;20030;-72
2022/03/26 08:16:55;;;;;;;1.92;1.58;;;;;;;14.59;72.70;102242.19;4982559;28;20030;-72
2022/03/26 08:19:21;;;;;;;1.05;0.90;;;;;;;14.62;72.93;102227.94;4992654;28;20041;-72
2022/03/26 08:21:47;;;;;;;4.35;1.73;;;;;;;14.77;72.20;102232.63;4990492;28;20034;-72
2022/03/26 08:24:13;;;;;;;1.38;0.82;;;;;;;14.80;73.44;102231.97;4989329;28;20061;-71
2022/03/26 08:26:39;;;;;;;1.17;1.15;;;;;;;15.07;73.43;102231.19;4986559;28;20539;-72
2022/03/26 08:29:05;;;;;;;3.38;2.33;;;;;;;15.36;72.02;102224.59;4992085;28;20097;-72
2022/03/26 08:31:31;;;;;;;1.45;1.20;;;;;;;15.64;70.00;102222.63;4989269;28;20042;-72
2022/03/26 08:33:57;;;;;;;1.42;0.85;;;;;;;15.85;69.61;102214.22;4996073;28;20117;-72
2022/03/26 08:36:24;;;;;;;1.00;0.90;;;;;;;16.10;68.13;102227.25;4996381;28;20082;-73
2022/03/26 08:38:50;;;;;;;1.35;1.02;;;;;;;16.06;67.22;102225.59;4993795;28;20074;-72
2022/03/26 08:41:19;;;;;;;0.85;0.65;;;;;;;15.93;67.18;102232.28;4989769;28;20042;-73
2022/03/26 08:43:45;;;;;;;0.60;0.35;;;;;;;15.83;67.91;102233.56;4988777;28;20050;-72
2022/03/26 08:46:10;;;;;;;1.00;0.82;;;;;;;15.87;68.27;102233.69;4993898;28;20034;-72
2022/03/26 08:48:36;;;;;;;2.63;1.25;;;;;;;15.82;68.22;102237.44;5001818;28;20034;-72
2022/03/26 08:51:03;;;;;;;0.57;0.50;;;;;;;15.90;67.69;102230.25;4990400;28;20034;-72
2022/03/26 08:53:29;;;;;;;0.90;0.77;;;;;;;15.83;68.58;102224.66;4976690;28;20071;-72
2022/03/26 08:55:54;;;;;;;2.75;1.52;;;;;;;15.86;68.53;102224.72;4993222;28;20599;-72
2022/03/26 08:58:20;;;;;;;0.93;0.88;;;;;;;15.91;68.51;102232.59;5020227;22;20405;-72
2022/03/26 09:00:47;;;;;;;0.68;0.43;;;;;;;15.93;68.89;102226.84;4990126;28;20057;-72
2022/03/26 09:03:14;;;;;;;1.17;0.80;;;;;;;15.86;68.38;102226.66;4991800;28;20050;-72
2022/03/26 09:05:40;;;;;;;1.27;0.82;;;;;;;15.81;68.97;102219.56;5006053;28;20038;-71
2022/03/26 09:08:06;;;;;;;3.63;1.52;;;;;;;15.92;69.14;102226.06;4988860;28;20122;-70
2022/03/26 09:10:32;;;;;;;1.10;0.55;;;;;;;16.13;68.89;102237.41;4967569;28;20038;-71
2022/03/26 09:12:57;;;;;;;0.82;0.50;;;;;;;16.31;68.15;102218.00;4975821;28;20064;-71
2022/03/26 09:15:23;;;;;;;1.92;1.25;;;;;;;16.51;66.80;102231.31;4982042;28;20578;-71
2022/03/26 09:17:48;;;;;;;1.15;0.65;;;;;;;16.79;65.71;102222.94;4980419;28;20042;-72
2022/03/26 09:20:13;;;;;;;0.30;0.30;;;;;;;17.03;65.14;102218.00;4974435;28;20026;-71
2022/03/26 09:22:39;;;;;;;5.72;1.70;;;;;;;17.15;64.12;102234.19;4979547;28;20054;-71
2022/03/26 09:25:05;;;;;;;1.25;0.93;;;;;;;17.39;63.12;102233.06;4974024;28;20495;-72
2022/03/26 09:27:31;;;;;;;2.35;0.98;;;;;;;17.61;62.41;102231.53;4972355;28;20034;-72
2022/03/26 09:29:56;;;;;;;0.20;0.20;;;;;;;17.58;61.85;102237.72;4971887;28;20045;-71
2022/03/26 09:32:22;;;;;;;1.20;0.93;;;;;;;17.52;61.70;102244.59;4974678;28;20109;-72
2022/03/26 09:34:49;;;;;;;0.90;0.75;;;;;;;17.32;61.52;102240.31;4979838;28;20073;-72
2022/03/26 09:37:15;;;;;;;2.65;1.15;;;;;;;16.95;63.63;102240.00;4973292;28;20027;-72
2022/03/26 09:39:41;;;;;;;4.20;0.75;;;;;;;16.72;64.21;102237.22;4967510;28;20035;-72
2022/03/26 09:42:09;;;;;;;0.68;0.38;;;;;;;16.49;66.59;102235.53;4972306;28;20563;-72
2022/03/26 09:44:35;;;;;;;1.38;1.27;;;;;;;16.53;66.26;102245.34;4977437;28;20069;-72
2022/03/26 09:47:03;;;;;;;0.40;0.40;;;;;;;16.48;66.44;102242.91;4970433;28;21110;-71
2022/03/26 09:49:29;;;;;;;1.42;1.13;;;;;;;16.46;67.09;102241.63;5011888;28;20034;-70
2022/03/26 09:51:54;;;;;;;1.02;0.93;;;;;;;16.36;67.91;102250.34;4758705;28;20066;-71
2022/03/26 09:54:21;;;;;;;4.43;0.95;;;;;;;16.48;67.51;102256.50;4965757;28;20479;-71
2022/03/26 09:56:46;;;;;;;0.50;0.50;;;;;;;16.38;66.89;102246.13;4972774;28;20026;-71
2022/03/26 09:59:12;;;;;;;0.70;0.35;;;;;;;16.25;67.62;102250.13;4974661;28;20360;-69
2022/03/26 10:01:37;;;;;;;1.67;0.93;;;;;;;16.17;68.95;102243.72;4971198;28;20323;-72
2022/03/26 10:04:10;;;;;;;0.50;0.50;;;;;;;16.37;69.57;102252.72;4971230;28;20182;-72
2022/03/26 10:06:35;;;;;;;0.88;0.73;;;;;;;16.35;69.68;102248.78;4974928;28;20042;-72
2022/03/26 10:09:02;;;;;;;1.38;0.73;;;;;;;16.54;68.95;102257.00;4986264;28;20049;-71
2022/03/26 10:11:32;;;;;;;3.05;1.00;;;;;;;16.68;68.75;102251.88;4975868;28;20590;-72
2022/03/26 10:13:58;;;;;;;0.30;0.28;;;;;;;16.71;69.02;102245.72;4980834;28;20039;-72
2022/03/26 10:16:24;;;;;;;0.43;0.43;;;;;;;16.82;67.86;102242.06;4990189;28;20129;-71
2022/03/26 10:18:50;;;;;;;0.82;0.52;;;;;;;16.76;68.67;102245.44;4975762;28;20114;-72
2022/03/26 10:21:18;;;;;;;0.35;0.35;;;;;;;16.99;67.32;102249.03;4970464;28;20026;-72
2022/03/26 10:23:49;;;;;;;0.63;0.60;;;;;;;17.02;66.64;102245.59;4972877;28;20049;-72
2022/03/26 10:26:21;;;;;;;0.77;0.70;;;;;;;16.92;67.83;102240.72;4973310;28;20046;-72
2022/03/26 10:28:54;;;;;;;0.20;0.20;;;;;;;17.03;67.24;102249.91;4960035;28;20043;-73
2022/03/26 10:34:11;;;;;;;1.88;0.80;;;;;;;17.00;67.35;102240.50;4971333;28;20050;-72
2022/03/26 10:36:47;;;;;;;0.30;0.20;;;;;;;17.17;67.29;102252.09;4956205;28;20126;-72
2022/03/26 10:39:26;;;;;;;1.52;0.40;;;;;;;16.89;68.03;102252.31;4953237;28;20407;-72
2022/03/26 10:41:53;;;;;;;0.32;0.20;;;;;;;17.08;67.52;102255.03;4953861;28;20043;-71
2022/03/26 10:44:23;;;;;;;1.33;1.05;;;;;;;17.03;67.71;102247.19;4971722;28;20031;-72
2022/03/26 10:46:54;;;;;;;0.60;0.55;;;;;;;16.89;68.39;102252.31;4970845;28;20050;-70
2022/03/26 10:49:33;;;;;;;0.40;0.40;;;;;;;16.97;68.08;102248.59;4970079;28;20067;-73
2022/03/26 10:52:11;;;;;;;1.00;0.28;;;;;;;16.89;67.97;102249.59;4966125;28;20070;-72
2022/03/26 10:54:37;;;;;;;0.93;0.68;;;;;;;16.89;68.02;102247.69;4972731;28;20034;-72
2022/03/26 10:57:03;;;;;;;0.73;0.73;;;;;;;16.96;68.47;102241.56;4971458;28;20547;-72
2022/03/26 10:59:30;;;;;;;1.00;0.95;;;;;;;16.85;68.82;102252.25;4969130;28;20049;-72
2022/03/26 11:01:57;;;;;;;1.00;0.45;;;;;;;16.81;69.19;102245.94;4968960;28;20562;-72
2022/03/26 11:04:23;;;;;;;0.45;0.45;;;;;;;16.81;69.36;102245.94;4972437;28;20073;-71
2022/03/26 11:06:49;;;;;;;0.70;0.70;;;;;;;16.82;70.45;102242.06;4968559;28;20070;-71
2022/03/26 11:09:17;;;;;;;0.60;0.60;;;;;;;16.92;69.90;102248.88;4956533;28;20081;-72
2022/03/26 11:11:47;;;;;;;0.57;0.57;;;;;;;16.82;70.22;102252.97;4971103;28;20101;-72
2022/03/26 11:14:22;;;;;;;1.10;0.70;;;;;;;16.88;69.72;102248.00;4970917;28;20495;-72
2022/03/26 11:17:09;;;;;;;0.52;0.35;;;;;;;16.92;68.74;102252.38;4971154;28;20093;-72
2022/03/26 11:19:44;;;;;;;0.47;0.28;;;;;;;16.73;70.23;102251.59;4970253;28;20078;-72
2022/03/26 11:22:54;;;;;;;0.30;0.30;;;;;;;16.77;70.13;102266.06;4972066;28;20417;-72
2022/03/26 11:25:40;;;;;;;0.50;0.50;;;;;;;16.80;70.13;102259.91;4923247;29;20078;-72
2022/03/26 11:28:15;;;;;;;1.20;0.60;;;;;;;16.63;70.38;102260.31;4910615;29;20108;-72